sensor_id;sensor_type;location;lat;lon;timestamp;temperature;humidity
22002;DHT22;11165;51.278;12.398;2022-09-12T00:00:28;14.50;99.90
22002;DHT22;11165;51.278;12.398;2022-09-12T00:02:56;14.50;99.90
22002;DHT22;11165;51.278;12.398;2022-09-12T00:05:22;14.50;99.90
22002;DHT22;11165;51.278;12.398;2022-09-12T00:07:48;14.50;99.90
22002;DHT22;11165;51.278;12.398;2022-09-12T00:10:14;14.50;99.90
22002;DHT22;11165;51.278;12.398;2022-09-12T00:12:39;14.50;99.90
22002;DHT22;11165;51.278;12.398;2022-09-12T00:15:06;14.40;99.90
22002;DHT22;11165;51.278;12.398;2022-09-12T00:17:36;14.40;99.90
22002;DHT22;11165;51.278;12.398;2022-09-12T00:20:03;14.30;99.90
22002;DHT22;11165;51.278;12.398;2022-09-12T00:22:29;14.30;99.90
22002;DHT22;11165;51.278;12.398;2022-09-12T00:24:55;14.30;99.90
22002;DHT22;11165;51.278;12.398;2022-09-12T00:27:20;14.20;99.90
22002;DHT22;11165;51.278;12.398;2022-09-12T00:29:46;14.20;99.90
22002;DHT22;11165;51.278;12.398;2022-09-12T00:32:11;14.10;99.90
22002;DHT22;11165;51.278;12.398;2022-09-12T00:34:37;14.10;99.90
22002;DHT22;11165;51.278;12.398;2022-09-12T00:37:03;14.10;99.90
22002;DHT22;11165;51.278;12.398;2022-09-12T00:39:28;14.20;99.90
22002;DHT22;11165;51.278;12.398;2022-09-12T00:41:54;14.20;99.90
22002;DHT22;11165;51.278;12.398;2022-09-12T00:47:19;14.30;99.90
22002;DHT22;11165;51.278;12.398;2022-09-12T00:49:47;14.30;99.90
22002;DHT22;11165;51.278;12.398;2022-09-12T00:52:19;14.30;99.90
22002;DHT22;11165;51.278;12.398;2022-09-12T00:54:53;14.30;99.90
22002;DHT22;11165;51.278;12.398;2022-09-12T00:57:22;14.30;99.90
22002;DHT22;11165;51.278;12.398;2022-09-12T00:59:52;14.30;99.90
22002;DHT22;11165;51.278;12.398;2022-09-12T01:02:19;14.30;99.90
22002;DHT22;11165;51.278;12.398;2022-09-12T01:04:45;14.30;99.90
22002;DHT22;11165;51.278;12.398;2022-09-12T01:07:13;14.30;99.90
22002;DHT22;11165;51.278;12.398;2022-09-12T01:09:41;14.30;99.90
22002;DHT22;11165;51.278;12.398;2022-09-12T01:12:07;14.30;99.90
22002;DHT22;11165;51.278;12.398;2022-09-12T01:14:33;14.30;99.90
22002;DHT22;11165;51.278;12.398;2022-09-12T01:16:59;14.30;99.90
22002;DHT22;11165;51.278;12.398;2022-09-12T01:22:53;14.20;99.90
22002;DHT22;11165;51.278;12.398;2022-09-12T01:31:38;13.80;99.90
22002;DHT22;11165;51.278;12.398;2022-09-12T01:34:25;13.80;99.90
22002;DHT22;11165;51.278;12.398;2022-09-12T01:37:16;13.70;99.90
22002;DHT22;11165;51.278;12.398;2022-09-12T01:40:09;13.70;99.90
22002;DHT22;11165;51.278;12.398;2022-09-12T01:42:47;13.60;99.90
22002;DHT22;11165;51.278;12.398;2022-09-12T01:45:36;13.60;99.90
22002;DHT22;11165;51.278;12.398;2022-09-12T01:48:26;13.60;99.90
22002;DHT22;11165;51.278;12.398;2022-09-12T01:50:59;13.70;99.90
22002;DHT22;11165;51.278;12.398;2022-09-12T01:53:31;13.70;99.90
22002;DHT22;11165;51.278;12.398;2022-09-12T01:56:18;13.80;99.90
22002;DHT22;11165;51.278;12.398;2022-09-12T01:58:55;13.80;99.90
22002;DHT22;11165;51.278;12.398;2022-09-12T02:01:26;13.80;99.90
22002;DHT22;11165;51.278;12.398;2022-09-12T02:06:33;13.90;99.90
22002;DHT22;11165;51.278;12.398;2022-09-12T02:09:18;13.90;99.90
22002;DHT22;11165;51.278;12.398;2022-09-12T02:11:45;13.90;99.90
22002;DHT22;11165;51.278;12.398;2022-09-12T02:14:16;13.90;99.90
22002;DHT22;11165;51.278;12.398;2022-09-12T02:17:01;13.90;99.90
22002;DHT22;11165;51.278;12.398;2022-09-12T02:19:35;14.00;99.90
22002;DHT22;11165;51.278;12.398;2022-09-12T02:22:03;13.90;99.90
22002;DHT22;11165;51.278;12.398;2022-09-12T02:24:33;13.90;99.90
22002;DHT22;11165;51.278;12.398;2022-09-12T02:27:05;14.00;99.90
22002;DHT22;11165;51.278;12.398;2022-09-12T02:29:34;14.00;99.90
22002;DHT22;11165;51.278;12.398;2022-09-12T02:35:17;13.90;99.90
22002;DHT22;11165;51.278;12.398;2022-09-12T02:38:02;13.90;99.90
22002;DHT22;11165;51.278;12.398;2022-09-12T02:40:30;13.90;99.90
22002;DHT22;11165;51.278;12.398;2022-09-12T02:42:57;14.00;99.90
22002;DHT22;11165;51.278;12.398;2022-09-12T02:45:22;13.90;99.90
22002;DHT22;11165;51.278;12.398;2022-09-12T02:47:54;13.90;99.90
22002;DHT22;11165;51.278;12.398;2022-09-12T02:50:21;13.90;99.90
22002;DHT22;11165;51.278;12.398;2022-09-12T02:52:48;13.90;99.90
22002;DHT22;11165;51.278;12.398;2022-09-12T02:55:14;13.90;99.90
22002;DHT22;11165;51.278;12.398;2022-09-12T02:57:41;13.80;99.90
22002;DHT22;11165;51.278;12.398;2022-09-12T03:00:07;13.80;99.90
22002;DHT22;11165;51.278;12.398;2022-09-12T03:02:55;13.70;99.90
22002;DHT22;11165;51.278;12.398;2022-09-12T03:05:30;13.60;99.90
22002;DHT22;11165;51.278;12.398;2022-09-12T03:08:09;13.50;99.90
22002;DHT22;11165;51.278;12.398;2022-09-12T03:10:41;13.60;99.90
22002;DHT22;11165;51.278;12.398;2022-09-12T03:13:26;13.50;99.90
22002;DHT22;11165;51.278;12.398;2022-09-12T03:19:14;13.40;99.90
22002;DHT22;11165;51.278;12.398;2022-09-12T03:24:53;13.50;99.90
22002;DHT22;11165;51.278;12.398;2022-09-12T03:27:28;13.50;99.90
22002;DHT22;11165;51.278;12.398;2022-09-12T03:29:54;13.50;99.90
22002;DHT22;11165;51.278;12.398;2022-09-12T03:32:42;13.50;99.90
22002;DHT22;11165;51.278;12.398;2022-09-12T03:35:09;13.50;99.90
22002;DHT22;11165;51.278;12.398;2022-09-12T03:37:35;13.60;99.90
22002;DHT22;11165;51.278;12.398;2022-09-12T03:40:03;13.60;99.90
22002;DHT22;11165;51.278;12.398;2022-09-12T03:42:29;13.60;99.90
22002;DHT22;11165;51.278;12.398;2022-09-12T03:44:55;13.60;99.90
22002;DHT22;11165;51.278;12.398;2022-09-12T03:47:20;13.60;99.90
22002;DHT22;11165;51.278;12.398;2022-09-12T03:49:46;13.60;99.90
22002;DHT22;11165;51.278;12.398;2022-09-12T03:52:11;13.50;99.90
22002;DHT22;11165;51.278;12.398;2022-09-12T03:54:37;13.50;99.90
22002;DHT22;11165;51.278;12.398;2022-09-12T03:57:02;13.50;99.90
22002;DHT22;11165;51.278;12.398;2022-09-12T03:59:28;13.50;99.90
22002;DHT22;11165;51.278;12.398;2022-09-12T04:01:53;13.30;99.90
22002;DHT22;11165;51.278;12.398;2022-09-12T04:04:19;13.20;99.90
22002;DHT22;11165;51.278;12.398;2022-09-12T04:06:44;13.20;99.90
22002;DHT22;11165;51.278;12.398;2022-09-12T04:09:10;13.10;99.90
22002;DHT22;11165;51.278;12.398;2022-09-12T04:11:35;13.10;99.90
22002;DHT22;11165;51.278;12.398;2022-09-12T04:14:01;13.10;99.90
22002;DHT22;11165;51.278;12.398;2022-09-12T04:16:26;13.00;99.90
22002;DHT22;11165;51.278;12.398;2022-09-12T04:18:53;13.00;99.90
22002;DHT22;11165;51.278;12.398;2022-09-12T04:21:19;13.00;99.90
22002;DHT22;11165;51.278;12.398;2022-09-12T04:23:46;13.00;99.90
22002;DHT22;11165;51.278;12.398;2022-09-12T04:26:13;13.00;99.90
22002;DHT22;11165;51.278;12.398;2022-09-12T04:28:39;12.90;99.90
22002;DHT22;11165;51.278;12.398;2022-09-12T04:31:16;12.80;99.90
22002;DHT22;11165;51.278;12.398;2022-09-12T04:33:43;12.80;99.90
22002;DHT22;11165;51.278;12.398;2022-09-12T04:36:11;12.80;99.90
22002;DHT22;11165;51.278;12.398;2022-09-12T04:38:41;12.70;99.90
22002;DHT22;11165;51.278;12.398;2022-09-12T04:41:14;12.70;99.90
22002;DHT22;11165;51.278;12.398;2022-09-12T04:43:41;12.80;99.90
22002;DHT22;11165;51.278;12.398;2022-09-12T04:46:08;12.60;99.90
22002;DHT22;11165;51.278;12.398;2022-09-12T04:48:34;12.70;99.90
22002;DHT22;11165;51.278;12.398;2022-09-12T04:51:18;12.80;99.90
22002;DHT22;11165;51.278;12.398;2022-09-12T04:53:48;12.90;99.90
22002;DHT22;11165;51.278;12.398;2022-09-12T04:56:14;12.80;99.90
22002;DHT22;11165;51.278;12.398;2022-09-12T04:58:40;12.80;99.90
22002;DHT22;11165;51.278;12.398;2022-09-12T05:01:11;12.80;99.90
22002;DHT22;11165;51.278;12.398;2022-09-12T05:03:38;12.80;99.90
22002;DHT22;11165;51.278;12.398;2022-09-12T05:06:07;12.90;99.90
22002;DHT22;11165;51.278;12.398;2022-09-12T05:08:33;12.90;99.90
22002;DHT22;11165;51.278;12.398;2022-09-12T05:11:05;12.90;99.90
22002;DHT22;11165;51.278;12.398;2022-09-12T05:13:32;13.00;99.90
22002;DHT22;11165;51.278;12.398;2022-09-12T05:15:59;13.00;99.90
22002;DHT22;11165;51.278;12.398;2022-09-12T05:18:25;13.00;99.90
22002;DHT22;11165;51.278;12.398;2022-09-12T05:20:55;13.00;99.90
22002;DHT22;11165;51.278;12.398;2022-09-12T05:23:20;13.10;99.90
22002;DHT22;11165;51.278;12.398;2022-09-12T05:25:54;13.20;99.90
22002;DHT22;11165;51.278;12.398;2022-09-12T05:28:21;13.20;99.90
22002;DHT22;11165;51.278;12.398;2022-09-12T05:30:47;13.30;99.90
22002;DHT22;11165;51.278;12.398;2022-09-12T05:33:13;13.40;99.90
22002;DHT22;11165;51.278;12.398;2022-09-12T05:35:39;13.40;99.90
22002;DHT22;11165;51.278;12.398;2022-09-12T05:38:05;13.50;99.90
22002;DHT22;11165;51.278;12.398;2022-09-12T05:40:32;13.50;99.90
22002;DHT22;11165;51.278;12.398;2022-09-12T05:42:58;13.50;99.90
22002;DHT22;11165;51.278;12.398;2022-09-12T05:45:23;13.70;99.90
22002;DHT22;11165;51.278;12.398;2022-09-12T05:47:49;13.70;99.90
22002;DHT22;11165;51.278;12.398;2022-09-12T05:50:14;13.80;99.90
22002;DHT22;11165;51.278;12.398;2022-09-12T05:52:40;13.80;99.90
22002;DHT22;11165;51.278;12.398;2022-09-12T05:55:06;13.90;99.90
22002;DHT22;11165;51.278;12.398;2022-09-12T05:57:32;13.90;99.90
22002;DHT22;11165;51.278;12.398;2022-09-12T05:59:58;14.10;99.90
22002;DHT22;11165;51.278;12.398;2022-09-12T06:02:24;14.00;99.90
22002;DHT22;11165;51.278;12.398;2022-09-12T06:04:49;14.00;99.90
22002;DHT22;11165;51.278;12.398;2022-09-12T06:07:15;14.10;99.90
22002;DHT22;11165;51.278;12.398;2022-09-12T06:09:41;14.20;99.90
22002;DHT22;11165;51.278;12.398;2022-09-12T06:12:06;14.30;99.90
22002;DHT22;11165;51.278;12.398;2022-09-12T06:14:33;14.30;99.90
22002;DHT22;11165;51.278;12.398;2022-09-12T06:16:58;14.20;99.90
22002;DHT22;11165;51.278;12.398;2022-09-12T06:19:24;14.30;99.90
22002;DHT22;11165;51.278;12.398;2022-09-12T06:21:52;14.30;99.90
22002;DHT22;11165;51.278;12.398;2022-09-12T06:24:19;14.40;99.90
22002;DHT22;11165;51.278;12.398;2022-09-12T06:26:46;14.40;99.90
22002;DHT22;11165;51.278;12.398;2022-09-12T06:29:12;14.40;99.90
22002;DHT22;11165;51.278;12.398;2022-09-12T06:31:39;14.40;99.90
22002;DHT22;11165;51.278;12.398;2022-09-12T06:34:10;14.50;99.90
22002;DHT22;11165;51.278;12.398;2022-09-12T06:36:38;14.70;99.90
22002;DHT22;11165;51.278;12.398;2022-09-12T06:39:06;14.70;99.90
22002;DHT22;11165;51.278;12.398;2022-09-12T06:41:32;14.60;99.90
22002;DHT22;11165;51.278;12.398;2022-09-12T06:43:59;14.80;99.90
22002;DHT22;11165;51.278;12.398;2022-09-12T06:46:26;14.90;99.90
22002;DHT22;11165;51.278;12.398;2022-09-12T06:48:52;15.00;99.90
22002;DHT22;11165;51.278;12.398;2022-09-12T06:51:18;15.10;99.90
22002;DHT22;11165;51.278;12.398;2022-09-12T06:53:45;15.50;99.90
22002;DHT22;11165;51.278;12.398;2022-09-12T06:56:13;16.00;99.90
22002;DHT22;11165;51.278;12.398;2022-09-12T06:58:40;16.30;99.90
22002;DHT22;11165;51.278;12.398;2022-09-12T07:01:17;16.00;99.90
22002;DHT22;11165;51.278;12.398;2022-09-12T07:03:50;16.10;99.90
22002;DHT22;11165;51.278;12.398;2022-09-12T07:06:18;16.30;99.90
22002;DHT22;11165;51.278;12.398;2022-09-12T07:08:44;16.10;99.90
22002;DHT22;11165;51.278;12.398;2022-09-12T07:11:16;15.90;99.90
22002;DHT22;11165;51.278;12.398;2022-09-12T07:13:44;16.00;99.90
22002;DHT22;11165;51.278;12.398;2022-09-12T07:16:10;16.10;99.90
22002;DHT22;11165;51.278;12.398;2022-09-12T07:18:37;15.90;99.90
22002;DHT22;11165;51.278;12.398;2022-09-12T07:21:08;15.90;99.90
22002;DHT22;11165;51.278;12.398;2022-09-12T07:23:34;15.90;99.90
22002;DHT22;11165;51.278;12.398;2022-09-12T07:26:00;15.90;99.90
22002;DHT22;11165;51.278;12.398;2022-09-12T07:28:29;16.00;99.90
22002;DHT22;11165;51.278;12.398;2022-09-12T07:30:55;16.00;99.90
22002;DHT22;11165;51.278;12.398;2022-09-12T07:33:22;15.90;99.90
22002;DHT22;11165;51.278;12.398;2022-09-12T07:35:48;15.80;99.90
22002;DHT22;11165;51.278;12.398;2022-09-12T07:38:15;15.80;99.90
22002;DHT22;11165;51.278;12.398;2022-09-12T07:40:41;16.10;99.90
22002;DHT22;11165;51.278;12.398;2022-09-12T07:43:07;16.20;99.90
22002;DHT22;11165;51.278;12.398;2022-09-12T07:45:32;16.30;99.90
22002;DHT22;11165;51.278;12.398;2022-09-12T07:47:58;16.40;99.90
22002;DHT22;11165;51.278;12.398;2022-09-12T07:50:23;16.40;99.90
22002;DHT22;11165;51.278;12.398;2022-09-12T07:52:49;17.50;99.90
22002;DHT22;11165;51.278;12.398;2022-09-12T07:55:15;18.30;99.90
22002;DHT22;11165;51.278;12.398;2022-09-12T07:57:41;18.80;99.90
22002;DHT22;11165;51.278;12.398;2022-09-12T08:00:07;18.60;99.90
22002;DHT22;11165;51.278;12.398;2022-09-12T08:02:33;18.50;99.90
22002;DHT22;11165;51.278;12.398;2022-09-12T08:04:58;18.30;99.90
22002;DHT22;11165;51.278;12.398;2022-09-12T08:07:24;18.00;99.90
22002;DHT22;11165;51.278;12.398;2022-09-12T08:09:50;18.10;99.90
22002;DHT22;11165;51.278;12.398;2022-09-12T08:12:16;18.40;99.90
22002;DHT22;11165;51.278;12.398;2022-09-12T08:14:42;18.50;99.90
22002;DHT22;11165;51.278;12.398;2022-09-12T08:17:07;19.00;99.90
22002;DHT22;11165;51.278;12.398;2022-09-12T08:19:33;19.70;99.90
22002;DHT22;11165;51.278;12.398;2022-09-12T08:21:59;20.10;99.90
22002;DHT22;11165;51.278;12.398;2022-09-12T08:24:25;20.60;99.90
22002;DHT22;11165;51.278;12.398;2022-09-12T08:26:50;20.20;99.90
22002;DHT22;11165;51.278;12.398;2022-09-12T08:29:16;20.00;99.90
22002;DHT22;11165;51.278;12.398;2022-09-12T08:31:42;20.20;99.90
22002;DHT22;11165;51.278;12.398;2022-09-12T08:34:08;20.60;99.90
22002;DHT22;11165;51.278;12.398;2022-09-12T08:36:34;20.90;99.90
22002;DHT22;11165;51.278;12.398;2022-09-12T08:39:02;21.10;99.90
22002;DHT22;11165;51.278;12.398;2022-09-12T08:41:44;21.30;99.90
22002;DHT22;11165;51.278;12.398;2022-09-12T08:44:23;21.20;99.90
22002;DHT22;11165;51.278;12.398;2022-09-12T08:52:06;21.50;99.90
22002;DHT22;11165;51.278;12.398;2022-09-12T08:54:36;21.80;99.90
22002;DHT22;11165;51.278;12.398;2022-09-12T08:57:03;22.50;99.90
22002;DHT22;11165;51.278;12.398;2022-09-12T08:59:37;22.70;99.90
22002;DHT22;11165;51.278;12.398;2022-09-12T09:02:21;22.40;99.90
22002;DHT22;11165;51.278;12.398;2022-09-12T09:04:51;22.90;99.90
22002;DHT22;11165;51.278;12.398;2022-09-12T09:10:17;23.30;99.90
22002;DHT22;11165;51.278;12.398;2022-09-12T09:16:40;23.60;99.90
22002;DHT22;11165;51.278;12.398;2022-09-12T09:22:43;23.80;99.90
22002;DHT22;11165;51.278;12.398;2022-09-12T09:27:57;23.10;99.90
22002;DHT22;11165;51.278;12.398;2022-09-12T09:30:25;23.80;99.90
22002;DHT22;11165;51.278;12.398;2022-09-12T09:32:54;24.20;99.90
22002;DHT22;11165;51.278;12.398;2022-09-12T09:35:42;23.70;99.90
22002;DHT22;11165;51.278;12.398;2022-09-12T09:43:22;21.80;99.90
22002;DHT22;11165;51.278;12.398;2022-09-12T09:45:50;22.20;99.90
22002;DHT22;11165;51.278;12.398;2022-09-12T09:48:26;22.90;99.90
22002;DHT22;11165;51.278;12.398;2022-09-12T09:50:53;22.30;99.90
22002;DHT22;11165;51.278;12.398;2022-09-12T09:55:50;21.90;99.90
22002;DHT22;11165;51.278;12.398;2022-09-12T09:58:33;22.50;99.90
22002;DHT22;11165;51.278;12.398;2022-09-12T10:01:03;23.20;99.90
22002;DHT22;11165;51.278;12.398;2022-09-12T10:03:37;22.70;99.90
22002;DHT22;11165;51.278;12.398;2022-09-12T10:06:21;22.10;99.90
22002;DHT22;11165;51.278;12.398;2022-09-12T10:08:48;22.60;99.90
22002;DHT22;11165;51.278;12.398;2022-09-12T10:14:00;23.40;99.90
22002;DHT22;11165;51.278;12.398;2022-09-12T10:16:31;23.80;99.90
22002;DHT22;11165;51.278;12.398;2022-09-12T10:18:58;23.80;99.90
22002;DHT22;11165;51.278;12.398;2022-09-12T10:21:30;23.60;99.90
22002;DHT22;11165;51.278;12.398;2022-09-12T10:26:45;22.60;99.90
22002;DHT22;11165;51.278;12.398;2022-09-12T10:29:17;22.50;99.90
22002;DHT22;11165;51.278;12.398;2022-09-12T10:31:51;22.70;99.90
22002;DHT22;11165;51.278;12.398;2022-09-12T10:34:32;22.70;99.90
22002;DHT22;11165;51.278;12.398;2022-09-12T10:37:02;22.80;99.90
22002;DHT22;11165;51.278;12.398;2022-09-12T10:39:29;22.80;99.90
22002;DHT22;11165;51.278;12.398;2022-09-12T10:41:55;23.10;99.90
22002;DHT22;11165;51.278;12.398;2022-09-12T10:44:26;23.20;99.90
22002;DHT22;11165;51.278;12.398;2022-09-12T10:46:54;22.50;99.90
22002;DHT22;11165;51.278;12.398;2022-09-12T10:49:30;22.20;99.90
22002;DHT22;11165;51.278;12.398;2022-09-12T10:51:58;22.30;99.90
22002;DHT22;11165;51.278;12.398;2022-09-12T10:54:39;22.30;99.90
22002;DHT22;11165;51.278;12.398;2022-09-12T10:57:21;21.70;99.90
22002;DHT22;11165;51.278;12.398;2022-09-12T11:00:30;22.10;99.90
22002;DHT22;11165;51.278;12.398;2022-09-12T11:03:05;21.90;99.90
22002;DHT22;11165;51.278;12.398;2022-09-12T11:06:00;21.60;99.90
22002;DHT22;11165;51.278;12.398;2022-09-12T11:08:36;22.10;99.90
22002;DHT22;11165;51.278;12.398;2022-09-12T11:14:27;22.30;99.90
22002;DHT22;11165;51.278;12.398;2022-09-12T11:17:08;22.20;99.90
22002;DHT22;11165;51.278;12.398;2022-09-12T11:19:49;21.90;99.90
22002;DHT22;11165;51.278;12.398;2022-09-12T11:31:24;20.90;99.90
22002;DHT22;11165;51.278;12.398;2022-09-12T11:33:54;20.80;99.90
22002;DHT22;11165;51.278;12.398;2022-09-12T11:36:47;20.80;99.90
22002;DHT22;11165;51.278;12.398;2022-09-12T11:39:27;20.90;99.90
22002;DHT22;11165;51.278;12.398;2022-09-12T11:41:59;20.90;99.90
22002;DHT22;11165;51.278;12.398;2022-09-12T11:44:36;21.20;99.90
22002;DHT22;11165;51.278;12.398;2022-09-12T11:47:12;21.30;99.90
22002;DHT22;11165;51.278;12.398;2022-09-12T11:49:55;21.20;99.90
22002;DHT22;11165;51.278;12.398;2022-09-12T11:52:23;21.20;99.90
22002;DHT22;11165;51.278;12.398;2022-09-12T11:55:05;20.60;99.90
22002;DHT22;11165;51.278;12.398;2022-09-12T11:57:40;20.80;99.90
22002;DHT22;11165;51.278;12.398;2022-09-12T12:00:17;21.20;99.90
22002;DHT22;11165;51.278;12.398;2022-09-12T12:05:41;21.10;99.90
22002;DHT22;11165;51.278;12.398;2022-09-12T12:08:09;20.90;99.90
22002;DHT22;11165;51.278;12.398;2022-09-12T12:10:37;20.90;99.90
22002;DHT22;11165;51.278;12.398;2022-09-12T12:13:48;20.70;99.90
22002;DHT22;11165;51.278;12.398;2022-09-12T12:16:19;20.80;99.90
22002;DHT22;11165;51.278;12.398;2022-09-12T12:18:59;21.00;99.90
22002;DHT22;11165;51.278;12.398;2022-09-12T12:24:12;21.00;99.90
22002;DHT22;11165;51.278;12.398;2022-09-12T12:29:05;21.10;99.90
22002;DHT22;11165;51.278;12.398;2022-09-12T12:36:54;20.90;99.90
22002;DHT22;11165;51.278;12.398;2022-09-12T12:42:02;21.50;99.90
22002;DHT22;11165;51.278;12.398;2022-09-12T12:47:20;21.50;99.90
22002;DHT22;11165;51.278;12.398;2022-09-12T12:50:02;21.30;99.90
22002;DHT22;11165;51.278;12.398;2022-09-12T12:52:32;21.40;99.90
22002;DHT22;11165;51.278;12.398;2022-09-12T12:55:04;21.20;99.90
22002;DHT22;11165;51.278;12.398;2022-09-12T12:57:50;21.30;99.90
22002;DHT22;11165;51.278;12.398;2022-09-12T13:03:02;21.40;99.90
22002;DHT22;11165;51.278;12.398;2022-09-12T13:05:48;21.40;99.90
22002;DHT22;11165;51.278;12.398;2022-09-12T13:10:52;21.20;99.90
22002;DHT22;11165;51.278;12.398;2022-09-12T13:13:29;21.20;99.90
22002;DHT22;11165;51.278;12.398;2022-09-12T13:15:56;21.10;99.90
22002;DHT22;11165;51.278;12.398;2022-09-12T13:18:43;21.20;99.90
22002;DHT22;11165;51.278;12.398;2022-09-12T13:21:14;21.30;99.90
22002;DHT22;11165;51.278;12.398;2022-09-12T13:23:40;21.30;99.90
22002;DHT22;11165;51.278;12.398;2022-09-12T13:26:11;21.50;99.90
22002;DHT22;11165;51.278;12.398;2022-09-12T13:28:37;21.40;99.90
22002;DHT22;11165;51.278;12.398;2022-09-12T13:31:16;21.40;99.90
22002;DHT22;11165;51.278;12.398;2022-09-12T13:33:48;21.20;99.90
22002;DHT22;11165;51.278;12.398;2022-09-12T13:42:00;21.40;99.90
22002;DHT22;11165;51.278;12.398;2022-09-12T13:44:28;21.50;99.90
22002;DHT22;11165;51.278;12.398;2022-09-12T13:46:58;21.70;99.90
22002;DHT22;11165;51.278;12.398;2022-09-12T13:49:35;21.70;99.70
22002;DHT22;11165;51.278;12.398;2022-09-12T13:52:16;21.50;99.10
22002;DHT22;11165;51.278;12.398;2022-09-12T13:54:44;21.70;99.30
22002;DHT22;11165;51.278;12.398;2022-09-12T13:57:29;21.50;99.40
22002;DHT22;11165;51.278;12.398;2022-09-12T13:59:57;21.60;99.90
22002;DHT22;11165;51.278;12.398;2022-09-12T14:02:24;21.50;99.90
22002;DHT22;11165;51.278;12.398;2022-09-12T14:04:52;21.60;99.90
22002;DHT22;11165;51.278;12.398;2022-09-12T14:07:57;21.50;99.90
22002;DHT22;11165;51.278;12.398;2022-09-12T14:10:30;21.40;99.90
22002;DHT22;11165;51.278;12.398;2022-09-12T14:12:59;21.50;99.90
22002;DHT22;11165;51.278;12.398;2022-09-12T14:15:30;21.50;99.90
22002;DHT22;11165;51.278;12.398;2022-09-12T14:18:01;21.40;99.90
22002;DHT22;11165;51.278;12.398;2022-09-12T14:20:37;21.50;99.90
22002;DHT22;11165;51.278;12.398;2022-09-12T14:23:28;21.40;99.90
22002;DHT22;11165;51.278;12.398;2022-09-12T14:25:56;21.30;99.90
22002;DHT22;11165;51.278;12.398;2022-09-12T14:28:25;21.20;99.90
22002;DHT22;11165;51.278;12.398;2022-09-12T14:33:26;21.30;99.90
22002;DHT22;11165;51.278;12.398;2022-09-12T14:36:21;21.30;99.90
22002;DHT22;11165;51.278;12.398;2022-09-12T14:38:50;21.20;99.90
22002;DHT22;11165;51.278;12.398;2022-09-12T14:41:26;21.20;99.90
22002;DHT22;11165;51.278;12.398;2022-09-12T14:43:57;21.20;99.90
22002;DHT22;11165;51.278;12.398;2022-09-12T14:46:35;21.20;99.90
22002;DHT22;11165;51.278;12.398;2022-09-12T14:49:08;21.30;99.90
22002;DHT22;11165;51.278;12.398;2022-09-12T14:51:37;21.20;99.90
22002;DHT22;11165;51.278;12.398;2022-09-12T14:54:04;21.20;99.90
22002;DHT22;11165;51.278;12.398;2022-09-12T14:56:38;21.10;99.90
22002;DHT22;11165;51.278;12.398;2022-09-12T15:04:45;21.10;99.90
22002;DHT22;11165;51.278;12.398;2022-09-12T15:07:34;21.10;99.90
22002;DHT22;11165;51.278;12.398;2022-09-12T15:10:34;21.00;99.90
22002;DHT22;11165;51.278;12.398;2022-09-12T15:15:30;21.00;99.90
22002;DHT22;11165;51.278;12.398;2022-09-12T15:17:56;21.00;99.90
22002;DHT22;11165;51.278;12.398;2022-09-12T15:20:23;21.00;99.90
22002;DHT22;11165;51.278;12.398;2022-09-12T15:22:49;20.90;99.90
22002;DHT22;11165;51.278;12.398;2022-09-12T15:25:15;21.00;99.90
22002;DHT22;11165;51.278;12.398;2022-09-12T15:27:41;20.90;99.90
22002;DHT22;11165;51.278;12.398;2022-09-12T15:30:07;20.90;99.90
22002;DHT22;11165;51.278;12.398;2022-09-12T15:32:34;21.00;99.90
22002;DHT22;11165;51.278;12.398;2022-09-12T15:35:00;21.00;99.90
22002;DHT22;11165;51.278;12.398;2022-09-12T15:37:25;20.90;99.90
22002;DHT22;11165;51.278;12.398;2022-09-12T15:39:51;20.90;99.90
22002;DHT22;11165;51.278;12.398;2022-09-12T15:42:18;21.00;99.90
22002;DHT22;11165;51.278;12.398;2022-09-12T15:44:49;20.90;99.90
22002;DHT22;11165;51.278;12.398;2022-09-12T15:47:14;20.90;99.90
22002;DHT22;11165;51.278;12.398;2022-09-12T15:49:40;20.80;99.90
22002;DHT22;11165;51.278;12.398;2022-09-12T15:52:06;20.80;99.90
22002;DHT22;11165;51.278;12.398;2022-09-12T15:54:32;20.70;99.90
22002;DHT22;11165;51.278;12.398;2022-09-12T15:56:57;20.80;99.90
22002;DHT22;11165;51.278;12.398;2022-09-12T15:59:23;20.70;99.90
22002;DHT22;11165;51.278;12.398;2022-09-12T16:01:49;20.70;99.90
22002;DHT22;11165;51.278;12.398;2022-09-12T16:04:18;20.60;99.90
22002;DHT22;11165;51.278;12.398;2022-09-12T16:06:45;20.50;99.90
22002;DHT22;11165;51.278;12.398;2022-09-12T16:09:10;20.50;99.90
22002;DHT22;11165;51.278;12.398;2022-09-12T16:11:37;20.50;99.90
22002;DHT22;11165;51.278;12.398;2022-09-12T16:14:04;20.50;99.90
22002;DHT22;11165;51.278;12.398;2022-09-12T16:16:29;20.50;99.90
22002;DHT22;11165;51.278;12.398;2022-09-12T16:18:55;20.50;99.90
22002;DHT22;11165;51.278;12.398;2022-09-12T16:21:20;20.50;99.90
22002;DHT22;11165;51.278;12.398;2022-09-12T16:23:47;20.50;99.90
22002;DHT22;11165;51.278;12.398;2022-09-12T16:26:13;20.50;99.90
22002;DHT22;11165;51.278;12.398;2022-09-12T16:28:38;20.50;99.90
22002;DHT22;11165;51.278;12.398;2022-09-12T16:31:05;20.50;99.90
22002;DHT22;11165;51.278;12.398;2022-09-12T16:33:32;20.50;99.90
22002;DHT22;11165;51.278;12.398;2022-09-12T16:36:08;20.50;99.90
22002;DHT22;11165;51.278;12.398;2022-09-12T16:38:40;20.60;99.90
22002;DHT22;11165;51.278;12.398;2022-09-12T16:41:06;20.70;99.90
22002;DHT22;11165;51.278;12.398;2022-09-12T16:43:33;20.70;99.90
22002;DHT22;11165;51.278;12.398;2022-09-12T16:46:04;20.80;99.90
22002;DHT22;11165;51.278;12.398;2022-09-12T16:48:30;20.70;99.90
22002;DHT22;11165;51.278;12.398;2022-09-12T16:50:56;20.70;99.90
22002;DHT22;11165;51.278;12.398;2022-09-12T16:53:23;20.70;99.90
22002;DHT22;11165;51.278;12.398;2022-09-12T16:55:49;20.60;99.90
22002;DHT22;11165;51.278;12.398;2022-09-12T16:58:15;20.50;99.90
22002;DHT22;11165;51.278;12.398;2022-09-12T17:00:40;20.40;99.90
22002;DHT22;11165;51.278;12.398;2022-09-12T17:03:06;20.30;99.90
22002;DHT22;11165;51.278;12.398;2022-09-12T17:05:31;20.30;99.90
22002;DHT22;11165;51.278;12.398;2022-09-12T17:07:57;20.20;99.90
22002;DHT22;11165;51.278;12.398;2022-09-12T17:10:22;20.10;99.90
22002;DHT22;11165;51.278;12.398;2022-09-12T17:12:48;20.00;99.90
22002;DHT22;11165;51.278;12.398;2022-09-12T17:15:14;19.70;99.90
22002;DHT22;11165;51.278;12.398;2022-09-12T17:17:40;19.50;99.90
22002;DHT22;11165;51.278;12.398;2022-09-12T17:20:06;19.40;99.90
22002;DHT22;11165;51.278;12.398;2022-09-12T17:22:32;19.20;99.90